Time;durP1;ratioP1;P1;durP2;ratioP2;P2;SDS_P1;SDS_P2;PMS_P1;PMS_P2;Temp;Humidity;BMP_temperature;BMP_pressure;BME280_temperature;BME280_humidity;BME280_pressure;Samples;Min_cycle;Max_cycle;Signal;HPM_P1;HPM_P2
2021/04/19 00:00:12;;;;;;;14.75;9.75;;;7.10;99.90;;;;;;5112362;28;20120;-73
2021/04/19 00:02:39;;;;;;;17.60;10.48;;;7.10;99.90;;;;;;5113649;28;20051;-74
2021/04/19 00:05:07;;;;;;;16.92;9.77;;;7.10;99.90;;;;;;5113427;28;20467;-74
2021/04/19 00:07:33;;;;;;;12.63;10.18;;;7.10;99.90;;;;;;5111878;28;20024;-73
2021/04/19 00:09:58;;;;;;;16.25;9.98;;;7.00;99.90;;;;;;5100465;28;20038;-72
2021/04/19 00:12:24;;;;;;;12.20;9.13;;;7.10;99.90;;;;;;5111702;28;20024;-72
2021/04/19 00:14:49;;;;;;;15.18;9.77;;;7.00;99.90;;;;;;5113052;28;20042;-73
2021/04/19 00:17:15;;;;;;;16.30;10.52;;;7.10;99.90;;;;;;5113189;28;20020;-73
2021/04/19 00:19:40;;;;;;;18.38;11.05;;;7.00;99.90;;;;;;5113193;28;20053;-73
2021/04/19 00:22:06;;;;;;;23.23;11.25;;;7.00;99.90;;;;;;5098077;28;20024;-73
2021/04/19 00:24:32;;;;;;;16.10;10.60;;;7.00;99.90;;;;;;5113080;28;20113;-73
2021/04/19 00:26:57;;;;;;;14.10;10.73;;;6.90;99.90;;;;;;5113195;28;20035;-72
2021/04/19 00:29:23;;;;;;;18.00;11.65;;;7.00;99.90;;;;;;5097642;28;20059;-73
2021/04/19 00:31:48;;;;;;;17.58;11.43;;;7.00;99.90;;;;;;5113351;28;20016;-71
2021/04/19 00:34:14;;;;;;;19.83;12.75;;;6.90;99.90;;;;;;5112368;28;20399;-72
2021/04/19 00:36:40;;;;;;;21.08;12.18;;;7.00;99.90;;;;;;5113232;27;20119;-72
2021/04/19 00:39:06;;;;;;;24.17;12.55;;;6.90;99.90;;;;;;5112911;28;20023;-72
2021/04/19 00:41:32;;;;;;;25.80;11.95;;;6.90;99.90;;;;;;5112078;28;20349;-71
2021/04/19 00:43:57;;;;;;;21.15;12.07;;;6.90;99.90;;;;;;5113190;28;20039;-72
2021/04/19 00:46:23;;;;;;;21.63;12.88;;;6.90;99.90;;;;;;5112776;28;20425;-72
2021/04/19 00:48:49;;;;;;;18.75;12.02;;;6.90;99.90;;;;;;5111672;28;20083;-72
2021/04/19 00:51:15;;;;;;;20.20;12.85;;;6.80;99.90;;;;;;5112624;28;20073;-73
2021/04/19 00:53:40;;;;;;;22.40;12.90;;;6.80;99.90;;;;;;5112570;28;20081;-73
2021/04/19 00:56:08;;;;;;;21.83;11.95;;;6.80;99.90;;;;;;5112021;28;20028;-72
2021/04/19 00:58:35;;;;;;;18.92;12.32;;;6.70;99.90;;;;;;5112516;28;20174;-73
2021/04/19 01:01:03;;;;;;;18.17;12.35;;;6.70;99.90;;;;;;5112807;28;20030;-72
2021/04/19 01:03:28;;;;;;;28.27;13.32;;;6.70;99.90;;;;;;5111702;28;20016;-73
2021/04/19 01:05:54;;;;;;;30.70;13.85;;;6.60;99.90;;;;;;5112635;28;20395;-72
2021/04/19 01:08:20;;;;;;;21.67;12.68;;;6.60;99.90;;;;;;5112339;28;20089;-73
2021/04/19 01:10:46;;;;;;;21.20;12.82;;;6.60;99.90;;;;;;5097468;28;20484;-73
2021/04/19 01:13:11;;;;;;;28.48;13.57;;;6.60;99.90;;;;;;5112686;28;20463;-73
2021/04/19 01:15:37;;;;;;;21.25;13.40;;;6.50;99.90;;;;;;5112129;28;20019;-72
2021/04/19 01:18:03;;;;;;;20.58;14.07;;;6.50;99.90;;;;;;5111936;28;20379;-72
2021/04/19 01:20:30;;;;;;;22.77;13.90;;;6.50;99.90;;;;;;5101189;28;20028;-73
2021/04/19 01:22:56;;;;;;;23.23;14.10;;;6.50;99.90;;;;;;5092160;28;20016;-72
2021/04/19 01:25:28;;;;;;;26.85;14.38;;;6.50;99.90;;;;;;5095661;28;20024;-72
2021/04/19 01:27:54;;;;;;;23.60;14.90;;;6.50;99.90;;;;;;5114910;28;20464;-72
2021/04/19 01:30:23;;;;;;;24.67;15.35;;;6.40;99.90;;;;;;5097813;28;20370;-72
2021/04/19 01:32:48;;;;;;;28.00;14.93;;;6.40;99.90;;;;;;5111737;28;20024;-72
2021/04/19 01:35:15;;;;;;;30.77;14.35;;;6.40;99.90;;;;;;5113037;28;20197;-72
2021/04/19 01:37:40;;;;;;;23.63;14.35;;;6.40;99.90;;;;;;5109906;28;20023;-73
2021/04/19 01:40:08;;;;;;;28.88;15.35;;;6.40;99.90;;;;;;5105615;28;20023;-72
2021/04/19 01:42:34;;;;;;;35.10;15.18;;;6.40;99.90;;;;;;5121462;28;20026;-73
2021/04/19 01:45:00;;;;;;;26.10;15.20;;;6.30;99.90;;;;;;5111984;28;20024;-73
2021/04/19 01:47:26;;;;;;;28.77;15.18;;;6.40;99.90;;;;;;5111871;28;20442;-73
2021/04/19 01:49:52;;;;;;;25.20;14.10;;;6.20;99.90;;;;;;5119848;28;20047;-72
2021/04/19 01:52:18;;;;;;;28.23;16.35;;;6.20;99.90;;;;;;5111046;28;20027;-72
2021/04/19 01:54:46;;;;;;;28.15;15.50;;;6.10;99.90;;;;;;5107388;28;20055;-72
2021/04/19 01:57:12;;;;;;;26.80;14.98;;;6.10;99.90;;;;;;5102364;28;20039;-72
2021/04/19 01:59:39;;;;;;;28.63;15.82;;;6.10;99.90;;;;;;5111141;28;20023;-75
2021/04/19 02:02:07;;;;;;;36.75;16.83;;;6.00;99.90;;;;;;5112644;28;20015;-73
2021/04/19 02:04:46;;;;;;;28.90;17.85;;;6.00;99.90;;;;;;5111549;28;20055;-73
2021/04/19 02:07:43;;;;;;;31.25;17.13;;;5.90;99.90;;;;;;5111198;28;20028;-73
2021/04/19 02:10:24;;;;;;;32.47;18.00;;;6.00;99.90;;;;;;5111849;28;20032;-72
2021/04/19 02:13:02;;;;;;;35.00;18.80;;;6.00;99.90;;;;;;5111230;28;20043;-72
2021/04/19 02:15:55;;;;;;;33.83;18.75;;;6.00;99.90;;;;;;5098770;28;20028;-72
2021/04/19 02:18:35;;;;;;;31.70;17.92;;;6.00;99.90;;;;;;5111616;28;20019;-72
2021/04/19 02:21:16;;;;;;;35.85;19.45;;;6.00;99.90;;;;;;5111302;28;20151;-72
2021/04/19 02:23:47;;;;;;;33.15;19.35;;;6.00;99.90;;;;;;5111218;28;20364;-72
2021/04/19 02:26:20;;;;;;;38.70;20.10;;;6.00;99.90;;;;;;5111982;28;20078;-72
2021/04/19 02:28:59;;;;;;;37.15;20.65;;;6.00;99.90;;;;;;5106622;28;20476;-72
2021/04/19 02:31:26;;;;;;;41.22;21.67;;;6.00;99.90;;;;;;5105058;28;20483;-72
2021/04/19 02:33:55;;;;;;;38.38;21.70;;;6.00;99.90;;;;;;5114527;28;20056;-72
2021/04/19 02:36:20;;;;;;;40.95;21.67;;;6.00;99.90;;;;;;5115109;28;20023;-72
2021/04/19 02:38:50;;;;;;;38.70;22.33;;;5.90;99.90;;;;;;5115553;28;20030;-71
2021/04/19 02:41:19;;;;;;;42.27;21.87;;;5.80;99.90;;;;;;5114814;28;20104;-73
2021/04/19 02:43:46;;;;;;;44.10;23.25;;;5.80;99.90;;;;;;5115279;28;20027;-73
2021/04/19 02:46:11;;;;;;;40.10;22.85;;;5.70;99.90;;;;;;5115290;28;20026;-72
2021/04/19 02:48:38;;;;;;;38.40;22.17;;;5.60;99.90;;;;;;5114069;27;20439;-72
2021/04/19 02:51:06;;;;;;;39.25;22.30;;;5.60;99.90;;;;;;5114858;28;20253;-72
2021/04/19 02:53:33;;;;;;;42.38;21.48;;;5.60;99.90;;;;;;5114929;28;20073;-71
2021/04/19 02:56:00;;;;;;;44.08;20.98;;;5.50;99.90;;;;;;5114371;27;20456;-73
2021/04/19 02:58:41;;;;;;;39.03;21.95;;;5.40;99.90;;;;;;5114692;28;20426;-73
2021/04/19 03:01:07;;;;;;;;;;;5.40;99.90;;;;;;5115198;28;20103;-73
2021/04/19 03:03:36;;;;;;;36.33;18.83;;;5.30;99.90;;;;;;5113970;28;19904;-72
2021/04/19 03:06:04;;;;;;;35.38;20.45;;;5.30;99.90;;;;;;5115104;28;20059;-73
2021/04/19 03:08:32;;;;;;;36.47;20.15;;;5.20;99.90;;;;;;5115324;28;20146;-73
2021/04/19 03:11:09;;;;;;;45.90;23.60;;;5.20;99.90;;;;;;5112813;28;20028;-73
2021/04/19 03:13:37;;;;;;;41.35;21.25;;;5.10;99.90;;;;;;5103130;28;20027;-73
2021/04/19 03:16:04;;;;;;;40.13;24.20;;;5.10;99.90;;;;;;5113780;28;20491;-73
2021/04/19 03:18:34;;;;;;;47.40;25.38;;;5.10;99.90;;;;;;5114535;28;20020;-73
2021/04/19 03:21:16;;;;;;;58.28;28.92;;;5.00;99.90;;;;;;5114752;28;20020;-72
2021/04/19 03:23:48;;;;;;;56.58;27.30;;;5.10;99.90;;;;;;5093126;28;20036;-72
2021/04/19 03:26:16;;;;;;;52.75;27.50;;;5.10;99.90;;;;;;5109900;28;20533;-72
2021/04/19 03:28:47;;;;;;;52.90;27.98;;;5.10;99.90;;;;;;5124603;28;20044;-72
2021/04/19 03:31:23;;;;;;;;;;;5.10;99.90;;;;;;5108001;28;20048;-72
2021/04/19 03:33:51;;;;;;;51.53;25.63;;;5.10;99.90;;;;;;5114333;28;19915;-72
2021/04/19 03:36:19;;;;;;;50.95;27.30;;;5.10;99.90;;;;;;5114382;28;20113;-72
2021/04/19 03:38:46;;;;;;;45.97;24.65;;;5.00;99.90;;;;;;5116293;28;20451;-73
2021/04/19 03:41:13;;;;;;;51.55;28.20;;;5.00;99.90;;;;;;5115219;28;20024;-73
2021/04/19 03:43:39;;;;;;;56.00;28.40;;;5.00;99.90;;;;;;5120055;28;20035;-74
2021/04/19 03:46:08;;;;;;;55.45;29.83;;;5.00;99.90;;;;;;5114603;27;20099;-72
2021/04/19 03:48:39;;;;;;;56.42;31.08;;;5.10;99.90;;;;;;5113637;28;20475;-72
2021/04/19 03:51:08;;;;;;;59.80;30.33;;;5.00;99.90;;;;;;5113403;28;20067;-72
2021/04/19 03:53:36;;;;;;;62.65;32.65;;;5.10;99.90;;;;;;5113661;28;20463;-72
2021/04/19 03:56:03;;;;;;;66.07;32.83;;;5.10;99.90;;;;;;5113869;28;20028;-72
2021/04/19 03:58:33;;;;;;;63.40;32.45;;;5.20;99.90;;;;;;5113111;28;20031;-72
2021/04/19 04:01:02;;;;;;;69.60;34.05;;;5.20;99.90;;;;;;5113834;28;20024;-72
2021/04/19 04:03:30;;;;;;;69.22;32.72;;;5.20;99.90;;;;;;5112200;28;20062;-72
2021/04/19 04:05:57;;;;;;;61.20;31.77;;;5.20;99.90;;;;;;5112893;28;20028;-73
2021/04/19 04:08:24;;;;;;;60.17;33.22;;;5.20;99.90;;;;;;5113536;28;20062;-72
2021/04/19 04:10:50;;;;;;;68.70;33.97;;;5.20;99.90;;;;;;5113680;28;20056;-74
2021/04/19 04:13:18;;;;;;;53.05;30.90;;;5.20;99.90;;;;;;5112741;28;20019;-73
2021/04/19 04:15:56;;;;;;;51.58;28.48;;;5.20;99.90;;;;;;5113426;28;20407;-74
2021/04/19 04:18:22;;;;;;;55.75;28.13;;;5.10;99.90;;;;;;5113134;28;20441;-74
2021/04/19 04:20:48;;;;;;;45.65;26.17;;;5.10;99.90;;;;;;5112886;28;20019;-73
2021/04/19 04:23:15;;;;;;;53.38;28.27;;;5.00;99.90;;;;;;5113233;28;20023;-73
2021/04/19 04:25:41;;;;;;;48.20;27.20;;;4.90;99.90;;;;;;5113076;27;20398;-74
2021/04/19 04:28:07;;;;;;;50.20;27.33;;;4.90;99.90;;;;;;5112488;28;20383;-73
2021/04/19 04:30:36;;;;;;;50.97;28.30;;;4.80;99.90;;;;;;5098470;28;20028;-72
2021/04/19 04:33:03;;;;;;;57.20;29.65;;;4.80;99.90;;;;;;5112933;28;20023;-72
2021/04/19 04:35:29;;;;;;;51.08;28.90;;;4.80;99.90;;;;;;5111741;28;20027;-72
2021/04/19 04:37:55;;;;;;;123.93;29.10;;;4.80;99.90;;;;;;5113241;27;20043;-73
2021/04/19 04:40:21;;;;;;;236.98;29.65;;;4.80;99.90;;;;;;5112066;28;20051;-72
2021/04/19 04:42:48;;;;;;;194.73;25.92;;;4.80;99.90;;;;;;5113157;28;20020;-72
2021/04/19 04:45:14;;;;;;;126.38;25.77;;;4.70;99.90;;;;;;5112779;28;20074;-72
2021/04/19 04:48:07;;;;;;;92.95;27.60;;;4.70;99.90;;;;;;5106092;28;20540;-73
2021/04/19 04:50:43;;;;;;;61.80;26.33;;;4.70;99.90;;;;;;5107439;28;20131;-73
2021/04/19 04:53:18;;;;;;;74.90;27.27;;;4.60;99.90;;;;;;5112793;28;20047;-74
2021/04/19 04:55:45;;;;;;;90.57;27.15;;;4.70;99.90;;;;;;5111844;28;20032;-73
2021/04/19 04:58:13;;;;;;;105.82;28.33;;;4.70;99.90;;;;;;5112645;28;20460;-72
2021/04/19 05:00:41;;;;;;;66.88;26.75;;;4.70;99.90;;;;;;5112372;28;20042;-72
2021/04/19 05:03:09;;;;;;;75.72;28.17;;;4.70;99.90;;;;;;5112137;28;20047;-72
2021/04/19 05:05:36;;;;;;;52.05;27.83;;;4.70;99.90;;;;;;5112357;28;20117;-72
2021/04/19 05:08:05;;;;;;;61.45;31.45;;;4.70;99.90;;;;;;5112785;28;20039;-71
2021/04/19 05:10:31;;;;;;;54.47;30.45;;;4.80;99.90;;;;;;5111486;28;20044;-72
2021/04/19 05:12:57;;;;;;;59.53;30.92;;;4.80;99.90;;;;;;5112543;28;20060;-73
2021/04/19 05:15:22;;;;;;;69.20;33.40;;;4.80;99.90;;;;;;5112383;28;20114;-72
2021/04/19 05:17:48;;;;;;;60.38;31.90;;;4.90;99.90;;;;;;5111705;28;20020;-72
2021/04/19 05:20:15;;;;;;;71.68;34.60;;;4.90;99.90;;;;;;5112284;28;20524;-73
2021/04/19 05:22:41;;;;;;;74.72;35.78;;;5.00;99.90;;;;;;5111447;28;20024;-72
2021/04/19 05:25:10;;;;;;;64.78;32.00;;;5.10;99.90;;;;;;5112867;28;20047;-73
2021/04/19 05:27:36;;;;;;;60.78;31.15;;;5.20;99.90;;;;;;5113631;28;20020;-72
2021/04/19 05:30:03;;;;;;;56.08;30.17;;;5.20;99.90;;;;;;5103656;28;20047;-73
2021/04/19 05:32:29;;;;;;;113.75;28.48;;;5.20;99.90;;;;;;5116358;28;20023;-73
2021/04/19 05:34:59;;;;;;;43.72;26.48;;;5.30;99.90;;;;;;5112848;28;20057;-72
2021/04/19 05:37:25;;;;;;;;;;;5.30;99.90;;;;;;5112220;28;20119;-72
2021/04/19 05:39:51;;;;;;;42.72;22.80;;;5.20;99.90;;;;;;5114535;28;20317;-73
2021/04/19 05:42:17;;;;;;;46.17;24.25;;;5.20;99.90;;;;;;5119072;28;20041;-72
2021/04/19 05:44:44;;;;;;;43.55;23.85;;;5.20;99.90;;;;;;5119640;28;20031;-72
2021/04/19 05:47:11;;;;;;;47.92;25.73;;;5.20;99.90;;;;;;5114024;28;20100;-72
2021/04/19 05:49:38;;;;;;;52.15;26.65;;;5.30;99.90;;;;;;5111601;28;20136;-71
2021/04/19 05:52:07;;;;;;;51.72;27.25;;;5.30;99.90;;;;;;5111434;28;20486;-72
2021/04/19 05:54:35;;;;;;;64.68;28.10;;;5.30;99.90;;;;;;5112282;28;20107;-73
2021/04/19 05:57:09;;;;;;;65.55;30.42;;;5.40;99.90;;;;;;5104342;28;20050;-73
2021/04/19 05:59:47;;;;;;;60.08;28.67;;;5.60;99.90;;;;;;5090173;28;20395;-73
2021/04/19 06:02:16;;;;;;;60.38;29.40;;;5.70;99.90;;;;;;5091544;28;20028;-73
2021/04/19 06:04:49;;;;;;;59.75;28.33;;;5.70;99.90;;;;;;5091981;28;20031;-73
2021/04/19 06:07:20;;;;;;;73.30;29.52;;;5.80;99.90;;;;;;5098627;28;20024;-73
2021/04/19 06:10:13;;;;;;;62.55;29.85;;;5.90;99.90;;;;;;5094569;28;20111;-73
2021/04/19 06:12:45;;;;;;;59.67;29.25;;;6.00;99.90;;;;;;5096253;28;20031;-73
2021/04/19 06:15:13;;;;;;;68.43;29.80;;;5.90;99.90;;;;;;5099368;28;20171;-72
2021/04/19 06:17:44;;;;;;;58.13;29.00;;;6.00;99.90;;;;;;5094851;28;20081;-73
2021/04/19 06:20:12;;;;;;;55.08;30.50;;;6.00;99.90;;;;;;5098813;28;20028;-72
2021/04/19 06:22:38;;;;;;;65.88;29.23;;;6.00;99.90;;;;;;5094361;28;21169;-72
2021/04/19 06:25:05;;;;;;;64.50;27.83;;;6.10;99.90;;;;;;5096370;28;20028;-73
2021/04/19 06:27:30;;;;;;;64.20;28.60;;;6.10;99.90;;;;;;5101819;28;20032;-73
2021/04/19 06:29:56;;;;;;;54.17;28.50;;;6.20;99.90;;;;;;5112117;28;20050;-72
2021/04/19 06:32:22;;;;;;;58.83;28.38;;;6.20;99.90;;;;;;5102075;28;20024;-72
2021/04/19 06:34:51;;;;;;;56.95;27.83;;;6.40;99.90;;;;;;5110407;28;20083;-75
2021/04/19 06:37:18;;;;;;;65.43;29.75;;;6.40;99.90;;;;;;5103479;28;20460;-73
2021/04/19 06:39:44;;;;;;;55.22;28.27;;;7.20;99.90;;;;;;5114223;28;20042;-74
2021/04/19 06:42:11;;;;;;;63.72;29.70;;;6.60;99.90;;;;;;5111367;28;20023;-74
2021/04/19 06:44:37;;;;;;;58.20;28.23;;;6.80;99.90;;;;;;5112132;28;20034;-74
2021/04/19 06:47:04;;;;;;;59.42;28.77;;;6.90;99.90;;;;;;5111421;28;20020;-74
2021/04/19 06:49:29;;;;;;;50.65;26.90;;;7.00;99.90;;;;;;5112276;28;20031;-74
2021/04/19 06:51:56;;;;;;;54.03;27.08;;;7.10;99.90;;;;;;5110131;28;20074;-74
2021/04/19 06:54:23;;;;;;;58.92;27.00;;;7.20;99.90;;;;;;5112756;28;20023;-74
2021/04/19 06:56:51;;;;;;;58.22;26.58;;;7.40;99.90;;;;;;5114807;28;20066;-74
2021/04/19 06:59:23;;;;;;;52.63;26.52;;;7.40;99.90;;;;;;5111850;28;20064;-75
2021/04/19 07:01:51;;;;;;;45.55;25.23;;;7.50;99.90;;;;;;5105884;28;20381;-75
2021/04/19 07:04:20;;;;;;;49.28;27.63;;;7.60;99.90;;;;;;5110809;28;20019;-73
2021/04/19 07:06:47;;;;;;;52.47;25.27;;;7.70;99.90;;;;;;5113179;28;20061;-75
2021/04/19 07:09:28;;;;;;;50.40;25.45;;;7.70;99.90;;;;;;5111654;28;20031;-75
2021/04/19 07:11:57;;;;;;;44.10;24.67;;;7.80;99.90;;;;;;5103317;28;20023;-76
2021/04/19 07:14:27;;;;;;;45.97;23.88;;;7.90;99.90;;;;;;5113922;28;20024;-77
2021/04/19 07:16:53;;;;;;;36.78;21.60;;;7.90;99.90;;;;;;5111110;28;20032;-75
2021/04/19 07:19:19;;;;;;;44.67;23.35;;;8.00;99.90;;;;;;5112288;28;20103;-77
2021/04/19 07:21:45;;;;;;;45.90;22.35;;;8.10;99.90;;;;;;5109407;28;20479;-75
2021/04/19 07:24:11;;;;;;;46.38;22.60;;;8.20;99.90;;;;;;5107576;28;20020;-75
2021/04/19 07:26:37;;;;;;;40.25;21.30;;;8.20;99.90;;;;;;5096800;28;20165;-77
2021/04/19 07:29:03;;;;;;;40.90;22.50;;;8.20;99.90;;;;;;5109561;28;20110;-75
2021/04/19 07:31:49;;;;;;;43.08;22.38;;;8.20;99.90;;;;;;5107340;28;20081;-77
2021/04/19 07:34:20;;;;;;;37.22;21.67;;;8.20;99.90;;;;;;5094425;28;20020;-77
2021/04/19 07:36:50;;;;;;;;;;;8.30;99.90;;;;;;5094191;28;20036;-78
2021/04/19 07:39:18;;;;;;;36.33;20.57;;;8.30;99.90;;;;;;5095954;28;19904;-79
2021/04/19 07:41:55;;;;;;;40.75;21.73;;;8.30;99.90;;;;;;5119547;28;20023;-78
2021/04/19 07:44:41;;;;;;;44.33;22.48;;;8.40;99.90;;;;;;5101232;28;20039;-77
2021/04/19 07:47:25;;;;;;;38.50;21.50;;;8.40;99.90;;;;;;5107995;28;20490;-76
2021/04/19 07:50:03;;;;;;;42.63;23.42;;;8.40;99.90;;;;;;5099799;28;20419;-76
2021/04/19 07:52:30;;;;;;;38.13;21.60;;;8.40;99.90;;;;;;5113205;28;20421;-77
2021/04/19 07:55:07;;;;;;;41.55;22.50;;;8.40;99.90;;;;;;5111016;28;20020;-77
2021/04/19 07:57:33;;;;;;;35.42;22.65;;;8.40;99.90;;;;;;5103608;28;20030;-76
2021/04/19 07:59:59;;;;;;;44.72;24.52;;;8.40;99.90;;;;;;5114272;27;20050;-76
2021/04/19 08:02:25;;;;;;;45.03;23.58;;;8.40;99.90;;;;;;5113891;28;20058;-76
2021/04/19 08:04:53;;;;;;;42.45;23.63;;;8.50;99.90;;;;;;5112934;28;20024;-79
2021/04/19 08:07:29;;;;;;;44.30;24.25;;;8.60;99.90;;;;;;5113882;28;20034;-74
2021/04/19 08:09:58;;;;;;;41.72;23.58;;;8.80;99.90;;;;;;5114974;28;20114;-77
2021/04/19 08:12:39;;;;;;;42.22;23.67;;;9.10;99.90;;;;;;5112855;28;20486;-75
2021/04/19 08:15:19;;;;;;;36.25;22.73;;;9.20;99.90;;;;;;5113811;28;20039;-76
2021/04/19 08:17:45;;;;;;;39.83;23.90;;;9.80;99.90;;;;;;5113716;28;20051;-78
2021/04/19 08:20:14;;;;;;;39.67;23.48;;;9.40;99.90;;;;;;5105108;28;20050;-76
2021/04/19 08:22:41;;;;;;;36.28;22.83;;;9.50;99.90;;;;;;5107031;27;20084;-76
2021/04/19 08:25:13;;;;;;;47.47;24.05;;;9.60;99.90;;;;;;5117125;27;20023;-77
2021/04/19 08:27:43;;;;;;;39.38;22.83;;;9.80;99.90;;;;;;5115668;27;20369;-77
2021/04/19 08:30:15;;;;;;;37.38;22.67;;;9.80;99.90;;;;;;5107605;27;20040;-77
2021/04/19 08:32:44;;;;;;;38.13;24.42;;;9.90;99.90;;;;;;5117077;27;20301;-76
2021/04/19 08:35:10;;;;;;;38.38;23.52;;;10.00;99.90;;;;;;5118346;27;20070;-76
2021/04/19 08:37:37;;;;;;;37.13;23.05;;;10.10;99.90;;;;;;5111760;27;20019;-76
2021/04/19 08:40:03;;;;;;;39.65;21.85;;;10.20;99.90;;;;;;5101760;27;20034;-76
2021/04/19 08:42:31;;;;;;;39.00;24.23;;;10.30;99.90;;;;;;5107509;27;20031;-77
2021/04/19 08:45:01;;;;;;;45.72;24.27;;;10.40;99.90;;;;;;5118089;27;20482;-78
2021/04/19 08:47:28;;;;;;;;;;;10.50;99.90;;;;;;5112068;27;20026;-77
2021/04/19 08:49:58;;;;;;;44.08;23.88;;;10.50;99.90;;;;;;5117604;27;19915;-76
2021/04/19 08:52:24;;;;;;;40.55;25.63;;;10.50;99.90;;;;;;5125869;27;20031;-79
2021/04/19 08:54:50;;;;;;;36.22;23.85;;;10.60;99.90;;;;;;5124744;27;20112;-75
2021/04/19 08:57:17;;;;;;;39.58;24.20;;;10.60;99.90;;;;;;5125553;27;20027;-76
2021/04/19 08:59:44;;;;;;;35.65;23.67;;;10.80;99.90;;;;;;5130738;27;20367;-77
2021/04/19 09:02:13;;;;;;;38.30;24.00;;;10.80;99.90;;;;;;5128387;27;20046;-75
2021/04/19 09:04:39;;;;;;;40.47;25.50;;;10.80;99.90;;;;;;5126036;27;20029;-78
2021/04/19 09:07:05;;;;;;;36.97;24.42;;;10.80;99.90;;;;;;5129439;27;20023;-78
2021/04/19 09:09:36;;;;;;;36.15;22.88;;;11.00;99.90;;;;;;5123220;27;20027;-75
2021/04/19 09:12:10;;;;;;;42.92;27.05;;;11.10;99.90;;;;;;5130595;27;20042;-76
2021/04/19 09:14:38;;;;;;;37.75;24.23;;;11.30;99.90;;;;;;5126657;27;20016;-78
2021/04/19 09:17:04;;;;;;;39.28;24.25;;;11.30;99.90;;;;;;5131462;27;20031;-77
2021/04/19 09:19:30;;;;;;;34.42;23.00;;;11.40;99.90;;;;;;5127356;27;20035;-77
2021/04/19 09:22:12;;;;;;;36.25;23.92;;;11.60;99.90;;;;;;5126843;27;20023;-78
2021/04/19 09:25:01;;;;;;;40.58;24.75;;;11.90;99.90;;;;;;5124784;27;20429;-76
2021/04/19 09:28:02;;;;;;;35.80;24.80;;;12.00;99.90;;;;;;5129613;27;20034;-76
2021/04/19 09:30:37;;;;;;;37.03;24.27;;;12.30;99.90;;;;;;5064051;28;20095;-77
2021/04/19 09:33:02;;;;;;;33.95;23.23;;;12.40;99.90;;;;;;5123944;27;20043;-75
2021/04/19 09:35:46;;;;;;;36.58;24.10;;;12.40;99.90;;;;;;5132089;27;20027;-77
2021/04/19 09:38:30;;;;;;;35.53;23.33;;;12.50;99.90;;;;;;5131638;28;20434;-77
2021/04/19 09:40:59;;;;;;;34.58;23.52;;;12.50;99.90;;;;;;5114108;28;20031;-77
2021/04/19 09:43:35;;;;;;;34.72;25.23;;;12.50;99.90;;;;;;5116764;28;20032;-77
2021/04/19 09:46:02;;;;;;;37.15;24.70;;;12.40;99.90;;;;;;5105085;27;20027;-75
2021/04/19 09:48:28;;;;;;;32.58;23.15;;;12.40;99.90;;;;;;5137513;27;20080;-75
2021/04/19 09:51:12;;;;;;;30.13;22.52;;;12.40;99.90;;;;;;5121813;27;20142;-76
2021/04/19 09:53:39;;;;;;;35.70;24.15;;;12.40;99.90;;;;;;5116203;28;20028;-77
2021/04/19 09:56:05;;;;;;;39.17;24.60;;;12.50;99.90;;;;;;5116669;28;20403;-76
2021/04/19 09:58:31;;;;;;;32.60;23.60;;;12.40;99.90;;;;;;5109179;28;20024;-75
2021/04/19 10:00:57;;;;;;;31.65;23.25;;;12.50;99.90;;;;;;5111403;28;20023;-77
2021/04/19 10:03:24;;;;;;;35.25;22.42;;;12.60;99.90;;;;;;5108596;28;20024;-76
2021/04/19 10:05:52;;;;;;;32.97;23.00;;;12.80;99.90;;;;;;5108412;28;20031;-75
2021/04/19 10:08:18;;;;;;;30.73;23.52;;;13.00;99.90;;;;;;5112876;28;20072;-76
2021/04/19 10:10:52;;;;;;;32.65;23.00;;;13.20;99.90;;;;;;5116100;28;20132;-77
2021/04/19 10:13:29;;;;;;;27.70;21.27;;;13.30;99.90;;;;;;5101986;28;20099;-76
2021/04/19 10:16:25;;;;;;;30.10;21.48;;;13.50;99.90;;;;;;5110393;28;20368;-76
2021/04/19 10:18:52;;;;;;;31.25;21.30;;;13.80;99.90;;;;;;5081945;28;20384;-75
2021/04/19 10:21:30;;;;;;;26.60;20.45;;;14.10;99.90;;;;;;5095421;28;20472;-77
2021/04/19 10:23:57;;;;;;;24.38;19.58;;;14.30;99.90;;;;;;5095823;28;20047;-78
2021/04/19 10:26:39;;;;;;;31.70;20.63;;;14.40;99.90;;;;;;5094560;28;20055;-77
2021/04/19 10:29:19;;;;;;;24.65;19.60;;;14.50;99.90;;;;;;5105395;28;20496;-76
2021/04/19 10:31:55;;;;;;;25.63;19.60;;;14.50;99.90;;;;;;5109326;28;20039;-76
2021/04/19 10:34:23;;;;;;;29.90;21.17;;;14.60;99.90;;;;;;5106391;28;20149;-76
2021/04/19 10:37:04;;;;;;;29.38;18.50;;;14.70;99.90;;;;;;5103727;28;20461;-76
2021/04/19 10:39:35;;;;;;;22.73;18.40;;;14.80;99.90;;;;;;5110504;28;20024;-76
2021/04/19 10:42:05;;;;;;;22.35;17.77;;;14.80;99.90;;;;;;5111740;28;20106;-76
2021/04/19 10:44:31;;;;;;;;;;;14.80;99.90;;;;;;5112199;28;20099;-75
2021/04/19 10:46:57;;;;;;;19.15;17.05;;;14.80;99.90;;;;;;5093424;28;20393;-75
2021/04/19 10:49:25;;;;;;;25.65;17.23;;;14.80;99.90;;;;;;5113536;27;20051;-76
2021/04/19 10:51:54;;;;;;;28.13;18.50;;;14.80;99.90;;;;;;5129127;27;20023;-75
2021/04/19 10:54:24;;;;;;;22.73;17.42;;;14.70;99.90;;;;;;5121581;27;20019;-75
2021/04/19 10:56:50;;;;;;;27.63;17.60;;;14.70;99.90;;;;;;5129479;27;20034;-74
2021/04/19 10:59:18;;;;;;;23.10;17.73;;;14.60;99.90;;;;;;5135405;27;20015;-75
2021/04/19 11:01:45;;;;;;;19.90;16.35;;;14.60;99.90;;;;;;5129572;27;20482;-75
2021/04/19 11:04:11;;;;;;;20.52;16.55;;;14.60;99.90;;;;;;5130428;27;20031;-76
2021/04/19 11:06:38;;;;;;;23.50;16.42;;;14.60;99.90;;;;;;5114319;28;20030;-75
2021/04/19 11:09:08;;;;;;;19.40;16.05;;;14.70;99.90;;;;;;5114026;28;20035;-73
2021/04/19 11:11:39;;;;;;;19.02;15.60;;;14.70;99.90;;;;;;5114218;28;20463;-75
2021/04/19 11:14:12;;;;;;;19.50;16.05;;;14.70;99.90;;;;;;5114895;28;20072;-76
2021/04/19 11:16:58;;;;;;;18.15;15.38;;;14.80;99.90;;;;;;5114608;28;20111;-77
2021/04/19 11:19:38;;;;;;;18.38;14.48;;;14.80;99.90;;;;;;5117274;27;20024;-76
2021/04/19 11:22:23;;;;;;;20.13;15.40;;;14.90;99.90;;;;;;5117505;27;20023;-76
2021/04/19 11:24:51;;;;;;;17.52;13.85;;;15.00;99.90;;;;;;5114075;27;20507;-75
2021/04/19 11:27:26;;;;;;;15.18;13.45;;;15.00;99.90;;;;;;5114137;27;20097;-76
2021/04/19 11:29:53;;;;;;;13.02;11.57;;;15.10;99.90;;;;;;5116527;27;20475;-76
2021/04/19 11:32:31;;;;;;;11.82;10.63;;;15.10;99.90;;;;;;5114241;27;20481;-76
2021/04/19 11:34:57;;;;;;;12.35;9.68;;;15.10;99.90;;;;;;5116520;28;20030;-79
2021/04/19 11:37:37;;;;;;;10.02;8.52;;;15.20;99.90;;;;;;5113031;28;20023;-75
2021/04/19 11:40:06;;;;;;;9.70;8.85;;;15.20;99.90;;;;;;5114770;28;20418;-77
2021/04/19 11:42:35;;;;;;;10.90;8.68;;;15.10;99.90;;;;;;5114229;27;20117;-77
2021/04/19 11:45:03;;;;;;;9.80;8.90;;;15.10;99.90;;;;;;5115350;28;20024;-77
2021/04/19 11:47:29;;;;;;;10.13;8.82;;;15.20;99.90;;;;;;5114970;28;20020;-77
2021/04/19 11:49:56;;;;;;;9.40;8.50;;;15.20;99.90;;;;;;5108293;28;20140;-76
2021/04/19 11:52:22;;;;;;;10.90;8.60;;;15.30;99.90;;;;;;5095046;28;20099;-76
2021/04/19 11:54:48;;;;;;;9.45;8.35;;;15.30;99.90;;;;;;5094074;28;20067;-76
2021/04/19 11:57:17;;;;;;;10.63;8.02;;;15.60;99.90;;;;;;5094035;28;20066;-76
2021/04/19 11:59:43;;;;;;;9.40;8.38;;;15.60;99.90;;;;;;5096257;28;20024;-78
2021/04/19 12:02:09;;;;;;;7.97;7.30;;;15.60;99.90;;;;;;5094960;28;20020;-78
2021/04/19 12:04:35;;;;;;;8.05;7.30;;;15.60;99.90;;;;;;5092148;28;20031;-77
2021/04/19 12:07:02;;;;;;;9.23;8.18;;;15.70;99.90;;;;;;5093762;28;20035;-76
2021/04/19 12:09:28;;;;;;;7.90;7.20;;;15.70;99.90;;;;;;5092781;28;20488;-77
2021/04/19 12:11:53;;;;;;;8.52;7.70;;;15.70;99.90;;;;;;5092739;28;20020;-76
2021/04/19 12:14:19;;;;;;;8.35;7.65;;;15.60;99.90;;;;;;5093081;28;21249;-75
2021/04/19 12:16:45;;;;;;;7.95;7.15;;;15.70;99.90;;;;;;5095467;28;20063;-76
2021/04/19 12:19:11;;;;;;;8.85;7.25;;;15.70;99.90;;;;;;5093504;28;20028;-77
2021/04/19 12:21:39;;;;;;;11.65;8.25;;;15.60;99.90;;;;;;5094050;28;20028;-76
2021/04/19 12:24:06;;;;;;;6.57;6.05;;;15.60;99.90;;;;;;5093952;28;20020;-76
2021/04/19 12:26:32;;;;;;;6.72;6.13;;;15.60;99.90;;;;;;5100966;28;20471;-79
2021/04/19 12:28:58;;;;;;;6.20;5.70;;;15.60;99.90;;;;;;5108123;28;20031;-77
2021/04/19 12:31:23;;;;;;;7.25;6.65;;;15.80;99.90;;;;;;5102844;28;20019;-77
2021/04/19 12:33:49;;;;;;;6.47;5.97;;;15.90;99.90;;;;;;5111567;28;20095;-77
2021/04/19 12:36:16;;;;;;;6.82;6.28;;;15.90;99.90;;;;;;5112511;28;20484;-77
2021/04/19 12:38:42;;;;;;;7.82;5.68;;;16.00;99.90;;;;;;5111505;28;20073;-77
2021/04/19 12:41:07;;;;;;;5.78;5.28;;;15.90;99.90;;;;;;5112504;28;20016;-77
2021/04/19 12:43:33;;;;;;;6.45;4.97;;;15.70;99.90;;;;;;5112091;28;20028;-77
2021/04/19 12:45:59;;;;;;;9.00;5.28;;;15.60;99.90;;;;;;5112220;28;20020;-77
2021/04/19 12:48:24;;;;;;;7.40;4.82;;;15.50;99.90;;;;;;5112763;28;20548;-77